Faber, Virginia
Current Conditions -  °F | °C
As of 9:55 PM on Thursday 27 Nov 2014 (Local Time) from KW13 Reporting Station
Broken Clouds Broken Clouds  
Wind Chill: 24°   Ceiling: 4800
Heat Index: 31°   Visibility: 10mi
Dew Point: 22°   Wind: 7mph
Humidity: 68%   Direction: 250°WSW
Pressure: 30.17"   Gusts: NA
Location:  37.83°N, 78.74°W
Report Text: KW13 280255Z AUTO 25006KT 10SM BKN048 M01/M06 A3017 RMK AO1 T10061058
Loading
Personal Weather Stations






























Interactive Weather Map New forecast layout! Learn more

10-Day Weather Forecast

Advertisements
Track Severe Weather on mobile